createdAt,value
2018-05-21T00:00:50.643Z,48.75
2018-05-21T00:01:50.667Z,49.43
2018-05-21T00:02:50.693Z,49.43
2018-05-21T00:03:50.721Z,49.52
2018-05-21T00:04:50.750Z,49.91
2018-05-21T00:05:50.773Z,49.91
2018-05-21T00:06:50.801Z,50.00
2018-05-21T00:07:50.833Z,49.33
2018-05-21T00:08:50.857Z,49.71
2018-05-21T00:09:50.881Z,50.00
2018-05-21T00:10:50.906Z,49.81
2018-05-21T00:11:50.936Z,50.29
2018-05-21T00:12:50.956Z,50.20
2018-05-21T00:13:50.987Z,50.38
2018-05-21T00:14:51.010Z,50.38
2018-05-21T00:15:51.042Z,50.48
2018-05-21T00:16:51.137Z,50.36
2018-05-21T00:17:51.092Z,50.07
2018-05-21T00:18:51.113Z,50.74
2018-05-21T00:19:51.138Z,50.36
2018-05-21T00:20:51.168Z,50.17
2018-05-21T00:21:51.191Z,50.36
2018-05-21T00:22:51.217Z,50.84
2018-05-21T00:23:51.246Z,50.74
2018-05-21T00:24:51.277Z,51.03
2018-05-21T00:25:51.298Z,51.61
2018-05-21T00:26:51.322Z,51.22
2018-05-21T00:27:51.346Z,51.13
2018-05-21T00:28:51.371Z,51.03
2018-05-21T00:29:51.405Z,51.32
2018-05-21T00:30:51.424Z,51.03
2018-05-21T00:31:51.451Z,51.48
2018-05-21T00:32:51.481Z,51.61
2018-05-21T00:33:51.505Z,51.61
2018-05-21T00:34:51.526Z,51.87
2018-05-21T00:35:51.559Z,51.48
2018-05-21T00:36:51.583Z,52.09
2018-05-21T00:37:51.609Z,51.61
2018-05-21T00:38:51.631Z,51.61
2018-05-21T00:39:51.658Z,51.61
2018-05-21T00:40:51.688Z,51.42
2018-05-21T00:41:51.715Z,51.42
2018-05-21T00:42:51.737Z,51.13
2018-05-21T00:43:51.784Z,51.22
2018-05-21T00:44:51.786Z,51.51
2018-05-21T00:45:51.817Z,51.13
2018-05-21T00:46:51.839Z,51.42
2018-05-21T00:47:51.884Z,51.70
2018-05-21T00:48:51.894Z,51.79
2018-05-21T00:49:51.916Z,51.61
2018-05-21T00:50:51.944Z,51.51
2018-05-21T00:51:51.966Z,51.32
2018-05-21T00:52:51.999Z,51.32
2018-05-21T00:53:52.017Z,51.29
2018-05-21T00:54:52.045Z,51.58
2018-05-21T00:55:52.074Z,51.77
2018-05-21T00:56:52.096Z,51.58
2018-05-21T00:57:52.121Z,51.99
2018-05-21T00:58:52.156Z,51.42
2018-05-21T00:59:52.175Z,51.97
2018-05-21T01:00:52.201Z,51.77
2018-05-21T01:01:52.225Z,51.97
2018-05-21T01:02:52.250Z,51.87
2018-05-21T01:03:52.275Z,51.77
2018-05-21T01:04:52.308Z,51.97
2018-05-21T01:05:52.330Z,52.25
2018-05-21T01:06:52.355Z,52.34
2018-05-21T01:07:52.384Z,52.34
2018-05-21T01:08:52.404Z,52.44
2018-05-21T01:09:52.431Z,52.44
2018-05-21T01:10:52.459Z,52.34
2018-05-21T01:11:52.480Z,52.73
2018-05-21T01:12:52.513Z,52.73
2018-05-21T01:13:52.530Z,52.80
2018-05-21T01:14:52.562Z,52.61
2018-05-21T01:15:52.589Z,52.83
2018-05-21T01:16:52.609Z,52.34
2018-05-21T01:17:52.634Z,52.54
2018-05-21T01:18:52.659Z,52.63
2018-05-21T01:19:52.688Z,52.92
2018-05-21T01:20:52.711Z,52.44
2018-05-21T01:21:52.739Z,52.73
2018-05-21T01:22:52.766Z,52.25
2018-05-21T01:23:52.789Z,52.34
2018-05-21T01:24:52.814Z,52.25
2018-05-21T01:25:52.840Z,52.34
2018-05-21T01:26:52.864Z,52.44
2018-05-21T01:27:52.893Z,52.44
2018-05-21T01:28:52.914Z,52.25
2018-05-21T01:29:52.940Z,52.25
2018-05-21T01:30:52.968Z,52.15
2018-05-21T01:31:53.003Z,52.34
2018-05-21T01:32:53.019Z,51.87
2018-05-21T01:33:53.044Z,52.34
2018-05-21T01:34:53.069Z,52.25
2018-05-21T01:35:53.094Z,52.44
2018-05-21T01:36:53.123Z,52.80
2018-05-21T01:37:53.147Z,52.89
2018-05-21T01:38:53.176Z,52.63
2018-05-21T01:39:53.198Z,52.83
2018-05-21T01:40:53.217Z,52.83
2018-05-21T01:41:53.249Z,53.56
2018-05-21T01:42:53.274Z,53.37
2018-05-21T01:43:53.302Z,53.37
2018-05-21T01:44:53.324Z,53.66
2018-05-21T01:45:53.356Z,53.47
2018-05-21T01:46:53.373Z,53.85
2018-05-21T01:47:53.406Z,54.04
2018-05-21T01:48:53.424Z,54.04
2018-05-21T01:49:53.448Z,53.94
2018-05-21T01:50:53.484Z,53.94
2018-05-21T01:51:53.498Z,53.85
2018-05-21T01:52:53.528Z,53.85
2018-05-21T01:53:53.552Z,54.43
2018-05-21T01:54:53.578Z,54.23
2018-05-21T01:55:53.603Z,54.52
2018-05-21T01:56:53.631Z,54.52
2018-05-21T01:57:53.652Z,54.43
2018-05-21T01:58:53.677Z,54.52
2018-05-21T01:59:53.703Z,55.19
2018-05-21T02:00:53.731Z,54.90
2018-05-21T02:01:53.753Z,55.54
2018-05-21T02:02:53.782Z,55.38
2018-05-21T02:03:53.802Z,55.47
2018-05-21T02:04:53.832Z,55.38
2018-05-21T02:05:53.852Z,55.47
2018-05-21T02:06:53.885Z,56.05
2018-05-21T02:07:53.912Z,56.31
2018-05-21T02:08:53.932Z,56.40
2018-05-21T02:09:53.958Z,55.93
2018-05-21T02:10:53.981Z,56.50
2018-05-21T02:11:54.007Z,55.93
2018-05-21T02:12:54.032Z,55.86
2018-05-21T02:13:54.060Z,55.64
2018-05-21T02:14:54.088Z,55.67
2018-05-21T02:15:54.108Z,55.54
2018-05-21T02:16:54.135Z,55.47
2018-05-21T02:17:54.158Z,54.90
2018-05-21T02:18:54.183Z,55.19
2018-05-21T02:19:54.231Z,55.38
2018-05-21T02:20:54.238Z,55.86
2018-05-21T02:21:54.259Z,55.38
2018-05-21T02:22:54.289Z,55.64
2018-05-21T02:23:54.307Z,55.74
2018-05-21T02:24:54.339Z,55.64
2018-05-21T02:25:54.357Z,55.38
2018-05-21T02:26:54.399Z,55.54
2018-05-21T02:27:54.415Z,55.57
2018-05-21T02:28:54.442Z,55.74
2018-05-21T02:29:54.465Z,56.12
2018-05-21T02:30:54.487Z,56.21
2018-05-21T02:31:54.511Z,56.21
2018-05-21T02:32:54.536Z,56.31
2018-05-21T02:33:54.561Z,56.31
2018-05-21T02:34:54.587Z,56.60
2018-05-21T02:35:54.610Z,56.31
2018-05-21T02:36:54.637Z,56.69
2018-05-21T02:37:54.658Z,56.79
2018-05-21T02:38:54.694Z,56.69
2018-05-21T02:39:54.715Z,56.88
2018-05-21T02:40:54.741Z,56.79
2018-05-21T02:41:54.766Z,56.69
2018-05-21T02:42:54.786Z,56.60
2018-05-21T02:43:54.811Z,57.17
2018-05-21T02:44:54.842Z,57.07
2018-05-21T02:45:54.867Z,56.88
2018-05-21T02:46:54.894Z,57.26
2018-05-21T02:47:54.913Z,56.88
2018-05-21T02:48:54.935Z,56.88
2018-05-21T02:49:54.974Z,56.98
2018-05-21T02:50:55.001Z,57.17
2018-05-21T02:51:55.014Z,56.69
2018-05-21T02:52:55.039Z,57.07
2018-05-21T02:53:55.065Z,57.17
2018-05-21T02:54:55.085Z,57.55
2018-05-21T02:55:55.111Z,58.03
2018-05-21T02:56:55.139Z,58.67
2018-05-21T02:57:55.161Z,58.58
2018-05-21T02:58:55.184Z,58.67
2018-05-21T02:59:55.216Z,58.76
2018-05-21T03:00:55.236Z,58.48
2018-05-21T03:01:55.263Z,58.38
2018-05-21T03:02:55.285Z,58.86
2018-05-21T03:03:55.309Z,58.51
2018-05-21T03:04:55.336Z,58.61
2018-05-21T03:05:55.359Z,58.22
2018-05-21T03:06:55.385Z,58.86
2018-05-21T03:07:55.412Z,58.76
2018-05-21T03:08:55.435Z,58.70
2018-05-21T03:09:55.470Z,58.67
2018-05-21T03:10:55.487Z,58.70
2018-05-21T03:11:55.518Z,58.12
2018-05-21T03:12:55.537Z,58.03
2018-05-21T03:13:55.558Z,58.32
2018-05-21T03:14:55.589Z,58.12
2018-05-21T03:15:55.608Z,58.80
2018-05-21T03:16:55.634Z,58.58
2018-05-21T03:17:55.663Z,58.58
2018-05-21T03:18:55.688Z,58.98
2018-05-21T03:19:55.708Z,58.89
2018-05-21T03:20:55.738Z,58.61
2018-05-21T03:21:55.762Z,58.70
2018-05-21T03:22:55.784Z,58.80
2018-05-21T03:23:55.817Z,58.51
2018-05-21T03:24:55.835Z,58.70
2018-05-21T03:25:55.862Z,58.67
2018-05-21T03:26:55.883Z,59.24
2018-05-21T03:27:55.911Z,59.24
2018-05-21T03:28:55.937Z,59.15
2018-05-21T03:29:55.962Z,59.34
2018-05-21T03:30:55.989Z,59.34
2018-05-21T03:31:56.008Z,59.44
2018-05-21T03:32:56.033Z,59.63
2018-05-21T03:33:56.056Z,59.53
2018-05-21T03:34:56.078Z,59.24
2018-05-21T03:35:56.107Z,59.63
2018-05-21T03:36:56.133Z,59.53
2018-05-21T03:37:56.157Z,59.53
2018-05-21T03:38:56.178Z,60.01
2018-05-21T03:39:56.203Z,59.91
2018-05-21T03:40:56.228Z,60.01
2018-05-21T03:41:56.253Z,59.53
2018-05-21T03:42:56.282Z,59.81
2018-05-21T03:43:56.303Z,59.44
2018-05-21T03:44:56.361Z,60.01
2018-05-21T03:45:56.352Z,59.63
2018-05-21T03:46:56.377Z,59.91
2018-05-21T03:47:56.404Z,60.10
2018-05-21T03:48:56.431Z,60.49
2018-05-21T03:49:56.453Z,59.72
2018-05-21T03:50:56.477Z,59.72
2018-05-21T03:51:56.503Z,60.49
2018-05-21T03:52:56.527Z,59.72
2018-05-21T03:53:56.553Z,60.30
2018-05-21T03:54:56.576Z,60.30
2018-05-21T03:55:56.604Z,60.20
2018-05-21T03:56:56.665Z,59.72
2018-05-21T03:57:56.652Z,60.04
2018-05-21T03:58:56.672Z,59.72
2018-05-21T03:59:56.702Z,60.49
2018-05-21T04:00:56.732Z,60.30
2018-05-21T04:01:56.749Z,60.20
2018-05-21T04:02:56.784Z,60.10
2018-05-21T04:03:56.809Z,60.68
2018-05-21T04:04:56.822Z,60.96
2018-05-21T04:05:56.846Z,60.96
2018-05-21T04:06:56.875Z,60.68
2018-05-21T04:07:56.896Z,60.68
2018-05-21T04:08:56.925Z,60.71
2018-05-21T04:09:56.946Z,60.39
2018-05-21T04:10:56.974Z,60.49
2018-05-21T04:11:57.042Z,60.23
2018-05-21T04:12:57.025Z,60.30
2018-05-21T04:13:57.050Z,60.39
2018-05-21T04:14:57.072Z,60.90
2018-05-21T04:15:57.096Z,60.80
2018-05-21T04:16:57.129Z,60.39
2018-05-21T04:17:57.146Z,60.90
2018-05-21T04:18:57.173Z,60.87
2018-05-21T04:19:57.197Z,60.77
2018-05-21T04:20:57.226Z,60.96
2018-05-21T04:21:57.249Z,61.09
2018-05-21T04:22:57.275Z,60.52
2018-05-21T04:23:57.299Z,60.71
2018-05-21T04:24:57.320Z,60.99
2018-05-21T04:25:57.345Z,60.52
2018-05-21T04:26:57.367Z,60.61
2018-05-21T04:27:57.399Z,60.90
2018-05-21T04:28:57.416Z,60.99
2018-05-21T04:29:57.450Z,61.09
2018-05-21T04:30:57.465Z,60.99
2018-05-21T04:31:57.500Z,60.52
2018-05-21T04:32:57.521Z,60.61
2018-05-21T04:33:57.542Z,60.61
2018-05-21T04:34:57.576Z,60.71
2018-05-21T04:35:57.596Z,60.33
2018-05-21T04:36:57.623Z,60.33
2018-05-21T04:37:57.645Z,60.61
2018-05-21T04:38:57.665Z,61.09
2018-05-21T04:39:57.697Z,60.90
2018-05-21T04:40:57.719Z,60.99
2018-05-21T04:41:57.740Z,61.28
2018-05-21T04:42:57.766Z,61.09
2018-05-21T04:43:57.795Z,60.80
2018-05-21T04:44:57.818Z,60.80
2018-05-21T04:45:57.839Z,60.80
2018-05-21T04:46:57.867Z,60.99
2018-05-21T04:47:57.891Z,61.09
2018-05-21T04:48:57.919Z,61.09
2018-05-21T04:49:57.938Z,61.28
2018-05-21T04:50:57.969Z,61.28
2018-05-21T04:51:57.993Z,61.38
2018-05-21T04:52:58.023Z,61.38
2018-05-21T04:53:58.040Z,61.19
2018-05-21T04:54:58.071Z,61.19
2018-05-21T04:55:58.094Z,61.76
2018-05-21T04:56:58.116Z,61.66
2018-05-21T04:57:58.140Z,61.95
2018-05-21T04:58:58.164Z,61.85
2018-05-21T04:59:58.194Z,62.04
2018-05-21T05:00:58.217Z,62.14
2018-05-21T05:01:58.244Z,61.95
2018-05-21T05:02:58.263Z,61.85
2018-05-21T05:03:58.290Z,62.14
2018-05-21T05:04:58.313Z,61.31
2018-05-21T05:05:58.339Z,62.08
2018-05-21T05:06:58.365Z,61.22
2018-05-21T05:07:58.389Z,61.60
2018-05-21T05:08:58.413Z,61.60
2018-05-21T05:09:58.444Z,61.31
2018-05-21T05:10:58.467Z,61.88
2018-05-21T05:11:58.489Z,61.60
2018-05-21T05:12:58.517Z,61.41
2018-05-21T05:13:58.539Z,61.31
2018-05-21T05:14:58.563Z,61.88
2018-05-21T05:15:58.593Z,61.41
2018-05-21T05:16:58.619Z,61.41
2018-05-21T05:17:58.636Z,61.41
2018-05-21T05:18:58.663Z,61.41
2018-05-21T05:19:58.691Z,61.88
2018-05-21T05:20:58.728Z,61.41
2018-05-21T05:21:58.738Z,61.31
2018-05-21T05:22:58.765Z,61.60
2018-05-21T05:23:58.793Z,61.02
2018-05-21T05:24:58.814Z,61.22
2018-05-21T05:25:58.840Z,61.31
2018-05-21T05:26:58.863Z,60.74
2018-05-21T05:27:58.890Z,61.41
2018-05-21T05:28:58.913Z,61.41
2018-05-21T05:29:58.943Z,61.02
2018-05-21T05:30:58.962Z,61.41
2018-05-21T05:31:58.987Z,61.25
2018-05-21T05:32:59.023Z,61.25
2018-05-21T05:33:59.038Z,60.86
2018-05-21T05:34:59.063Z,61.34
2018-05-21T05:35:59.129Z,60.58
2018-05-21T05:36:59.112Z,61.05
2018-05-21T05:37:59.142Z,60.58
2018-05-21T05:38:59.170Z,60.58
2018-05-21T05:39:59.191Z,60.48
2018-05-21T05:40:59.217Z,60.67
2018-05-21T05:41:59.254Z,60.29
2018-05-21T05:42:59.262Z,60.29
2018-05-21T05:43:59.294Z,60.29
2018-05-21T05:44:59.315Z,60.38
2018-05-21T05:45:59.338Z,60.10
2018-05-21T05:46:59.362Z,59.62
2018-05-21T05:47:59.389Z,59.52
2018-05-21T05:48:59.420Z,59.43
2018-05-21T05:49:59.437Z,59.81
2018-05-21T05:50:59.467Z,59.81
2018-05-21T05:51:59.490Z,60.03
2018-05-21T05:52:59.522Z,59.75
2018-05-21T05:53:59.545Z,59.17
2018-05-21T05:54:59.571Z,59.17
2018-05-21T05:55:59.592Z,59.55
2018-05-21T05:56:59.621Z,59.84
2018-05-21T05:57:59.641Z,59.65
2018-05-21T05:58:59.670Z,58.98
2018-05-21T05:59:59.698Z,58.98
2018-05-21T06:00:59.723Z,58.69
2018-05-21T06:01:59.747Z,58.79
2018-05-21T06:02:59.766Z,58.98
2018-05-21T06:03:59.797Z,58.69
2018-05-21T06:04:59.841Z,57.92
2018-05-21T06:05:59.850Z,57.83
2018-05-21T06:06:59.874Z,58.12
2018-05-21T06:07:59.897Z,58.05
2018-05-21T06:08:59.929Z,58.44
2018-05-21T06:09:59.949Z,58.31
2018-05-21T06:10:59.979Z,58.24
2018-05-21T06:12:00.005Z,57.67
2018-05-21T06:13:00.027Z,57.19
2018-05-21T06:14:00.052Z,57.67
2018-05-21T06:15:00.076Z,57.57
2018-05-21T06:16:00.101Z,57.76
2018-05-21T06:17:00.131Z,58.15
2018-05-21T06:18:00.151Z,58.44
2018-05-21T06:19:00.188Z,58.81
2018-05-21T06:20:00.204Z,57.76
2018-05-21T06:21:00.230Z,57.95
2018-05-21T06:22:00.258Z,57.57
2018-05-21T06:23:00.286Z,57.86
2018-05-21T06:24:00.308Z,57.38
2018-05-21T06:25:00.335Z,57.48
2018-05-21T06:26:00.385Z,57.76
2018-05-21T06:27:00.389Z,57.67
2018-05-21T06:28:00.409Z,56.71
2018-05-21T06:29:00.449Z,56.45
2018-05-21T06:30:00.470Z,56.83
2018-05-21T06:31:00.494Z,57.12
2018-05-21T06:32:00.524Z,57.31
2018-05-21T06:33:00.552Z,57.41
2018-05-21T06:34:00.660Z,57.31
2018-05-21T06:35:00.591Z,56.83
2018-05-21T06:36:00.623Z,56.45
2018-05-21T06:37:00.645Z,56.35
2018-05-21T06:38:00.669Z,56.64
2018-05-21T06:39:00.697Z,56.07
2018-05-21T06:40:00.725Z,55.30
2018-05-21T06:41:00.755Z,55.49
2018-05-21T06:42:00.772Z,54.91
2018-05-21T06:43:00.806Z,55.01
2018-05-21T06:44:00.825Z,54.53
2018-05-21T06:45:00.849Z,54.63
2018-05-21T06:46:00.879Z,54.63
2018-05-21T06:47:00.907Z,54.44
2018-05-21T06:48:00.929Z,54.72
2018-05-21T06:49:00.955Z,54.15
2018-05-21T06:50:00.979Z,54.15
2018-05-21T06:51:01.009Z,54.56
2018-05-21T06:52:01.070Z,54.94
2018-05-21T06:53:01.064Z,55.13
2018-05-21T06:54:01.088Z,54.66
2018-05-21T06:55:01.115Z,55.04
2018-05-21T06:56:01.144Z,54.56
2018-05-21T06:57:01.169Z,54.17
2018-05-21T06:58:01.199Z,53.99
2018-05-21T06:59:01.299Z,53.70
2018-05-21T07:00:01.245Z,54.17
2018-05-21T07:01:01.276Z,53.31
2018-05-21T07:02:01.297Z,52.36
2018-05-21T07:03:01.327Z,51.90
2018-05-21T07:04:01.348Z,52.28
2018-05-21T07:05:01.385Z,52.28
2018-05-21T07:06:01.406Z,52.19
2018-05-21T07:07:01.440Z,52.95
2018-05-21T07:08:01.538Z,52.76
2018-05-21T07:09:01.482Z,52.48
2018-05-21T07:10:01.515Z,52.67
2018-05-21T07:11:01.533Z,51.71
2018-05-21T07:12:01.561Z,52.09
2018-05-21T07:13:01.592Z,51.71
2018-05-21T07:14:01.675Z,51.71
2018-05-21T07:15:01.635Z,51.71
2018-05-21T07:16:01.663Z,51.32
2018-05-21T07:17:01.690Z,51.25
2018-05-21T07:18:01.718Z,50.78
2018-05-21T07:19:01.744Z,50.96
2018-05-21T07:20:01.769Z,50.68
2018-05-21T07:21:01.799Z,50.68
2018-05-21T07:22:01.822Z,50.78
2018-05-21T07:23:01.849Z,50.10
2018-05-21T07:24:01.874Z,50.49
2018-05-21T07:25:01.907Z,50.96
2018-05-21T07:26:01.928Z,51.25
2018-05-21T07:27:01.958Z,51.64
2018-05-21T07:28:01.985Z,51.54
2018-05-21T07:29:02.008Z,51.45
2018-05-21T07:30:02.033Z,50.96
2018-05-21T07:31:02.061Z,50.29
2018-05-21T07:32:02.088Z,50.87
2018-05-21T07:33:02.112Z,50.20
2018-05-21T07:34:02.151Z,49.33
2018-05-21T07:35:02.167Z,49.36
2018-05-21T07:36:02.201Z,49.55
2018-05-21T07:37:02.223Z,49.36
2018-05-21T07:38:02.247Z,48.40
2018-05-21T07:39:02.312Z,48.11
2018-05-21T07:40:02.306Z,47.72
2018-05-21T07:41:02.334Z,48.59
2018-05-21T07:42:02.355Z,47.72
2018-05-21T07:43:02.382Z,47.72
2018-05-21T07:44:02.410Z,47.63
2018-05-21T07:45:02.432Z,48.11
2018-05-21T07:46:02.462Z,48.11
2018-05-21T07:47:02.488Z,47.92
2018-05-21T07:48:02.512Z,47.92
2018-05-21T07:49:02.554Z,48.30
2018-05-21T07:50:02.568Z,47.82
2018-05-21T07:51:02.594Z,47.75
2018-05-21T07:52:02.635Z,49.19
2018-05-21T07:53:02.647Z,48.81
2018-05-21T07:54:02.681Z,47.08
2018-05-21T07:55:02.709Z,46.89
2018-05-21T07:56:02.726Z,46.41
2018-05-21T07:57:02.758Z,45.73
2018-05-21T07:58:02.783Z,46.21
2018-05-21T07:59:02.806Z,46.89
2018-05-21T08:00:02.838Z,46.69
2018-05-21T08:01:02.866Z,47.10
2018-05-21T08:02:02.890Z,46.33
2018-05-21T08:03:02.911Z,45.95
2018-05-21T08:04:02.944Z,46.33
2018-05-21T08:05:02.972Z,45.85
2018-05-21T08:06:02.995Z,46.43
2018-05-21T08:07:03.029Z,46.53
2018-05-21T08:08:03.051Z,45.47
2018-05-21T08:09:03.080Z,44.70
2018-05-21T08:10:03.104Z,44.70
2018-05-21T08:11:03.131Z,45.18
2018-05-21T08:12:03.156Z,44.89
2018-05-21T08:13:03.184Z,44.89
2018-05-21T08:14:03.211Z,45.08
2018-05-21T08:15:03.234Z,44.70
2018-05-21T08:16:03.265Z,44.79
2018-05-21T08:17:03.291Z,44.70
2018-05-21T08:18:03.324Z,44.79
2018-05-21T08:19:03.348Z,45.28
2018-05-21T08:20:03.378Z,44.70
2018-05-21T08:21:03.404Z,44.24
2018-05-21T08:22:03.429Z,43.37
2018-05-21T08:23:03.456Z,42.50
2018-05-21T08:24:03.481Z,42.03
2018-05-21T08:25:03.515Z,41.93
2018-05-21T08:26:03.554Z,43.37
2018-05-21T08:27:03.597Z,43.95
2018-05-21T08:28:03.592Z,43.28
2018-05-21T08:29:03.618Z,42.89
2018-05-21T08:30:03.644Z,42.99
2018-05-21T08:31:03.670Z,43.01
2018-05-21T08:32:03.705Z,43.40
2018-05-21T08:33:03.725Z,42.43
2018-05-21T08:34:03.752Z,42.60
2018-05-21T08:35:03.782Z,42.91
2018-05-21T08:36:03.808Z,42.63
2018-05-21T08:37:03.838Z,42.53
2018-05-21T08:38:03.860Z,43.01
2018-05-21T08:39:03.886Z,42.63
2018-05-21T08:40:03.920Z,42.72
2018-05-21T08:41:03.943Z,42.72
2018-05-21T08:42:03.971Z,42.63
2018-05-21T08:43:03.997Z,42.72
2018-05-21T08:44:04.021Z,42.53
2018-05-21T08:45:04.053Z,42.05
2018-05-21T08:46:04.073Z,42.72
2018-05-21T08:47:04.107Z,43.01
2018-05-21T08:48:04.140Z,42.82
2018-05-21T08:49:04.162Z,42.43
2018-05-21T08:50:04.189Z,42.63
2018-05-21T08:51:04.219Z,42.72
2018-05-21T08:52:04.242Z,42.24
2018-05-21T08:53:04.274Z,42.43
2018-05-21T08:54:04.303Z,42.43
2018-05-21T08:55:04.322Z,42.24
2018-05-21T08:56:04.445Z,42.53
2018-05-21T08:57:04.379Z,42.24
2018-05-21T08:58:04.403Z,42.24
2018-05-21T08:59:04.430Z,41.47
2018-05-21T09:00:04.468Z,41.49
2018-05-21T09:01:04.483Z,40.91
2018-05-21T09:02:04.508Z,40.34
2018-05-21T09:03:04.539Z,40.53
2018-05-21T09:04:04.568Z,40.64
2018-05-21T09:05:04.593Z,40.55
2018-05-21T09:06:04.618Z,40.74
2018-05-21T09:07:04.658Z,41.41
2018-05-21T09:08:04.673Z,40.74
2018-05-21T09:09:04.705Z,41.03
2018-05-21T09:10:04.788Z,41.51
2018-05-21T09:11:04.762Z,41.80
2018-05-21T09:12:04.789Z,41.13
2018-05-21T09:13:04.813Z,40.45
2018-05-21T09:14:04.839Z,39.49
2018-05-21T09:15:04.869Z,39.39
2018-05-21T09:16:04.915Z,39.78
2018-05-21T09:17:04.924Z,40.26
2018-05-21T09:18:04.961Z,39.79
2018-05-21T09:19:04.975Z,39.22
2018-05-21T09:20:05.008Z,38.74
2018-05-21T09:21:05.040Z,38.83
2018-05-21T09:22:05.077Z,39.31
2018-05-21T09:23:05.095Z,39.41
2018-05-21T09:24:05.115Z,39.31
2018-05-21T09:25:05.143Z,38.72
2018-05-21T09:26:05.224Z,39.12
2018-05-21T09:27:05.196Z,37.77
2018-05-21T09:28:05.234Z,37.48
2018-05-21T09:29:05.255Z,37.48
2018-05-21T09:30:05.281Z,37.19
2018-05-21T09:31:05.312Z,37.10
2018-05-21T09:32:05.343Z,37.10
2018-05-21T09:33:05.369Z,36.81
2018-05-21T09:34:05.387Z,36.83
2018-05-21T09:35:05.421Z,36.81
2018-05-21T09:36:05.447Z,36.81
2018-05-21T09:37:05.473Z,37.12
2018-05-21T09:38:05.500Z,37.50
2018-05-21T09:39:05.528Z,36.83
2018-05-21T09:40:05.562Z,36.25
2018-05-21T09:41:05.591Z,36.93
2018-05-21T09:42:05.629Z,36.35
2018-05-21T09:43:05.649Z,35.96
2018-05-21T09:44:05.671Z,36.63
2018-05-21T09:45:05.697Z,36.63
2018-05-21T09:46:05.731Z,36.73
2018-05-21T09:47:05.750Z,36.15
2018-05-21T09:48:05.828Z,36.93
2018-05-21T09:49:05.810Z,35.96
2018-05-21T09:50:05.831Z,35.96
2018-05-21T09:51:05.860Z,35.59
2018-05-21T09:52:05.895Z,35.40
2018-05-21T09:53:05.917Z,35.98
2018-05-21T09:54:05.948Z,37.13
2018-05-21T09:55:05.971Z,36.85
2018-05-21T09:56:06.006Z,36.65
2018-05-21T09:57:06.027Z,36.27
2018-05-21T09:58:06.062Z,35.59
2018-05-21T09:59:06.085Z,35.59
2018-05-21T10:00:06.112Z,35.59
2018-05-21T10:01:06.139Z,35.21
2018-05-21T10:02:06.169Z,34.34
2018-05-21T10:03:06.199Z,34.14
2018-05-21T10:04:06.228Z,33.95
2018-05-21T10:05:06.251Z,33.87
2018-05-21T10:06:06.280Z,33.39
2018-05-21T10:07:06.307Z,33.68
2018-05-21T10:08:06.336Z,33.48
2018-05-21T10:09:06.362Z,33.97
2018-05-21T10:10:06.391Z,33.97
2018-05-21T10:11:06.420Z,33.10
2018-05-21T10:12:06.538Z,33.39
2018-05-21T10:13:06.479Z,33.39
2018-05-21T10:14:06.499Z,34.26
2018-05-21T10:15:06.530Z,35.52
2018-05-21T10:16:06.561Z,34.36
2018-05-21T10:17:06.586Z,34.84
2018-05-21T10:18:06.619Z,34.84
2018-05-21T10:19:06.641Z,35.03
2018-05-21T10:20:06.671Z,34.84
2018-05-21T10:21:06.715Z,34.06
2018-05-21T10:22:06.726Z,33.10
2018-05-21T10:23:06.757Z,32.81
2018-05-21T10:24:06.799Z,32.34
2018-05-21T10:25:06.819Z,32.34
2018-05-21T10:26:06.889Z,33.22
2018-05-21T10:27:06.866Z,32.82
2018-05-21T10:28:06.897Z,33.40
2018-05-21T10:29:06.925Z,33.02
2018-05-21T10:30:06.949Z,32.75
2018-05-21T10:31:06.987Z,32.73
2018-05-21T10:32:07.010Z,33.04
2018-05-21T10:33:07.037Z,32.24
2018-05-21T10:34:07.070Z,32.65
2018-05-21T10:35:07.095Z,31.98
2018-05-21T10:36:07.127Z,31.01
2018-05-21T10:37:07.234Z,30.91
2018-05-21T10:38:07.198Z,31.10
2018-05-21T10:39:07.216Z,31.01
2018-05-21T10:40:07.237Z,31.51
2018-05-21T10:41:07.268Z,29.86
2018-05-21T10:42:07.293Z,30.44
2018-05-21T10:43:07.323Z,30.05
2018-05-21T10:44:07.351Z,29.96
2018-05-21T10:45:07.377Z,30.54
2018-05-21T10:46:07.406Z,30.73
2018-05-21T10:47:07.433Z,31.04
2018-05-21T10:48:07.466Z,30.75
2018-05-21T10:49:07.493Z,29.88
2018-05-21T10:50:07.517Z,30.07
2018-05-21T10:51:07.552Z,31.13
2018-05-21T10:52:07.578Z,29.60
2018-05-21T10:53:07.604Z,29.50
2018-05-21T10:54:07.630Z,30.66
2018-05-21T10:55:07.667Z,29.60
2018-05-21T10:56:07.721Z,29.13
2018-05-21T10:57:07.720Z,28.36
2018-05-21T10:58:07.751Z,28.07
2018-05-21T10:59:07.779Z,28.18
2018-05-21T11:00:07.813Z,27.50
2018-05-21T11:01:07.835Z,28.49
2018-05-21T11:02:07.865Z,26.45
2018-05-21T11:03:07.896Z,25.40
2018-05-21T11:04:07.929Z,25.41
2018-05-21T11:05:07.963Z,24.07
2018-05-21T11:06:07.989Z,24.08
2018-05-21T11:07:08.025Z,23.63
2018-05-21T11:08:08.052Z,22.02
2018-05-21T11:09:08.083Z,20.86
2018-05-21T11:10:08.130Z,19.42
2018-05-21T11:11:08.149Z,18.37
2018-05-21T11:12:08.332Z,17.71
2018-05-21T11:13:08.212Z,16.45
2018-05-21T11:14:08.245Z,15.89
2018-05-21T11:15:08.276Z,15.89
2018-05-21T11:16:08.312Z,15.12
2018-05-21T11:17:08.346Z,14.15
2018-05-21T11:18:08.380Z,14.05
2018-05-21T11:19:08.414Z,13.96
2018-05-21T11:20:08.444Z,13.27
2018-05-21T11:21:08.480Z,12.79
2018-05-21T11:22:08.516Z,12.20
2018-05-21T11:23:08.549Z,12.79
2018-05-21T11:24:08.586Z,12.79
2018-05-21T11:25:08.623Z,12.79
2018-05-21T11:26:08.660Z,12.29
2018-05-21T11:27:08.691Z,12.78
2018-05-21T11:28:08.731Z,12.68
2018-05-21T11:29:08.775Z,12.59
2018-05-21T11:30:08.796Z,12.57
2018-05-21T11:31:08.832Z,12.28
2018-05-21T11:32:08.882Z,11.60
2018-05-21T11:33:08.907Z,11.81
2018-05-21T11:34:08.943Z,12.19
2018-05-21T11:35:08.984Z,12.29
2018-05-21T11:36:09.017Z,12.19
2018-05-21T11:37:09.053Z,12.19
2018-05-21T11:38:09.092Z,12.19
2018-05-21T11:39:09.132Z,12.00
2018-05-21T11:40:09.165Z,11.80
2018-05-21T11:41:09.201Z,11.41
2018-05-21T11:42:09.236Z,11.51
2018-05-21T11:43:09.276Z,11.23
2018-05-21T11:44:09.312Z,10.24
2018-05-21T11:45:09.351Z,10.74
2018-05-21T11:46:09.390Z,10.63
2018-05-21T11:47:09.426Z,10.64
2018-05-21T11:48:09.461Z,10.93
2018-05-21T11:49:09.499Z,10.94
2018-05-21T11:50:09.538Z,10.74
2018-05-21T11:51:09.578Z,10.14
2018-05-21T11:52:09.611Z,10.63
2018-05-21T11:53:09.653Z,10.05
2018-05-21T11:54:09.688Z,10.83
2018-05-21T11:55:09.730Z,10.83
2018-05-21T11:56:09.770Z,10.83
2018-05-21T11:57:09.807Z,9.66
2018-05-21T11:58:09.847Z,9.75
2018-05-21T11:59:09.880Z,10.26
2018-05-21T12:00:09.917Z,9.77
2018-05-21T12:01:09.951Z,9.18
2018-05-21T12:02:09.996Z,9.08
2018-05-21T12:03:10.040Z,9.68
2018-05-21T12:04:10.075Z,9.68
2018-05-21T12:05:10.115Z,9.00
2018-05-21T12:06:10.150Z,8.11
2018-05-21T12:07:10.184Z,8.51
2018-05-21T12:08:10.232Z,8.12
2018-05-21T12:09:10.260Z,8.01
2018-05-21T12:10:10.304Z,8.01
2018-05-21T12:11:10.345Z,7.91
2018-05-21T12:12:10.379Z,7.91
2018-05-21T12:13:10.423Z,7.91
2018-05-21T12:14:10.456Z,8.40
2018-05-21T12:15:10.496Z,8.31
2018-05-21T12:16:10.540Z,8.90
2018-05-21T12:17:10.583Z,7.82
2018-05-21T12:18:10.620Z,8.50
2018-05-21T12:19:10.655Z,8.61
2018-05-21T12:20:10.699Z,8.41
2018-05-21T12:21:10.734Z,7.62
2018-05-21T12:22:10.773Z,7.72
2018-05-21T12:23:10.819Z,8.20
2018-05-21T12:24:10.851Z,8.01
2018-05-21T12:25:10.896Z,8.61
2018-05-21T12:26:10.940Z,8.22
2018-05-21T12:27:10.971Z,7.82
2018-05-21T12:28:11.011Z,7.53
2018-05-21T12:29:11.060Z,7.63
2018-05-21T12:30:11.091Z,7.83
2018-05-21T12:31:11.137Z,7.62
2018-05-21T12:32:11.174Z,7.53
2018-05-21T12:33:11.212Z,8.12
2018-05-21T12:34:11.254Z,7.92
2018-05-21T12:35:11.293Z,8.31
2018-05-21T12:36:11.340Z,8.80
2018-05-21T12:37:11.374Z,7.92
2018-05-21T12:38:11.422Z,7.43
2018-05-21T12:39:11.455Z,7.33
2018-05-21T12:40:11.523Z,7.23
2018-05-21T12:41:11.535Z,7.53
2018-05-21T12:42:11.579Z,7.43
2018-05-21T12:43:11.618Z,7.93
2018-05-21T12:44:11.659Z,7.04
2018-05-21T12:45:11.699Z,7.23
2018-05-21T12:46:11.743Z,7.82
2018-05-21T12:47:11.783Z,8.03
2018-05-21T12:48:11.819Z,7.53
2018-05-21T12:49:11.864Z,7.73
2018-05-21T12:50:11.903Z,7.34
2018-05-21T12:51:11.944Z,7.43
2018-05-21T12:52:11.984Z,8.51
2018-05-21T12:53:12.024Z,7.62
2018-05-21T12:54:12.076Z,8.90
2018-05-21T12:55:12.111Z,8.12